Time;durP1;ratioP1;P1;durP2;ratioP2;P2;SDS_P1;SDS_P2;PMS_P1;PMS_P2;Temp;Humidity;BMP_temperature;BMP_pressure;BME280_temperature;BME280_humidity;BME280_pressure;Samples;Min_cycle;Max_cycle;Signal;HPM_P1;HPM_P2
2023/03/09 00:01:29;;;;;;;20.08;14.20;;;;;;;-0.25;100.00;99072.78;5011451;28;20034;-74
2023/03/09 00:03:55;;;;;;;18.55;13.77;;;;;;;-0.24;100.00;99071.91;4974687;28;20494;-74
2023/03/09 00:06:21;;;;;;;21.13;15.30;;;;;;;-0.23;100.00;99063.22;4974400;28;20049;-74
2023/03/09 00:08:47;;;;;;;20.63;15.27;;;;;;;-0.24;100.00;99036.38;4975823;28;20399;-74
2023/03/09 00:11:14;;;;;;;19.17;14.00;;;;;;;-0.23;100.00;99032.88;4973172;28;20494;-74
2023/03/09 00:13:39;;;;;;;20.17;15.32;;;;;;;-0.22;100.00;99049.38;4976942;28;20108;-74
2023/03/09 00:16:19;;;;;;;19.55;14.00;;;;;;;-0.23;100.00;99066.69;4977491;28;20038;-74
2023/03/09 00:18:45;;;;;;;20.33;14.93;;;;;;;-0.21;100.00;99058.88;4974938;28;20030;-74
2023/03/09 00:21:14;;;;;;;21.30;13.65;;;;;;;-0.22;100.00;99060.63;4975728;28;20030;-73
2023/03/09 00:23:41;;;;;;;19.35;14.50;;;;;;;-0.24;100.00;99058.91;4977744;28;20426;-73
2023/03/09 00:26:09;;;;;;;19.75;14.40;;;;;;;-0.23;100.00;99069.28;5020938;28;20049;-74
2023/03/09 00:28:34;;;;;;;22.83;16.23;;;;;;;-0.22;100.00;99070.19;4975625;28;20031;-74
2023/03/09 00:31:05;;;;;;;20.70;15.68;;;;;;;-0.20;100.00;99091.81;4975837;28;20031;-73
2023/03/09 00:33:34;;;;;;;22.58;15.75;;;;;;;-0.20;100.00;99086.63;5006197;28;20031;-73
2023/03/09 00:35:59;;;;;;;20.25;14.57;;;;;;;-0.20;100.00;99089.22;4973736;28;20034;-73
2023/03/09 00:38:27;;;;;;;21.30;15.32;;;;;;;-0.20;100.00;99096.16;5010715;28;20109;-73
2023/03/09 00:40:52;;;;;;;22.08;14.98;;;;;;;-0.19;100.00;99108.31;4971087;28;20165;-81
2023/03/09 00:43:18;;;;;;;22.17;16.42;;;;;;;-0.19;100.00;99103.13;4971467;28;20043;-81
2023/03/09 00:45:43;;;;;;;21.10;15.00;;;;;;;-0.19;100.00;99100.50;4972251;28;20044;-81
2023/03/09 00:48:09;;;;;;;20.33;14.98;;;;;;;-0.18;100.00;99104.84;4974718;28;20133;-73
2023/03/09 00:50:35;;;;;;;23.25;15.95;;;;;;;-0.18;100.00;99116.09;4965380;28;20034;-73
2023/03/09 00:53:00;;;;;;;19.38;14.73;;;;;;;-0.22;100.00;99120.47;5003110;28;20041;-73
2023/03/09 00:55:26;;;;;;;20.48;15.68;;;;;;;-0.20;100.00;99117.84;4962362;28;20118;-73
2023/03/09 00:57:51;;;;;;;20.30;14.60;;;;;;;-0.20;100.00;99128.25;4996996;28;20108;-73
2023/03/09 01:00:17;;;;;;;23.70;15.43;;;;;;;-0.20;100.00;99124.78;4977141;28;20367;-73
2023/03/09 01:02:43;;;;;;;19.75;14.95;;;;;;;-0.17;100.00;99132.56;4981321;28;20030;-73
2023/03/09 01:05:09;;;;;;;22.38;14.40;;;;;;;-0.17;100.00;99132.56;4961839;28;20193;-73
2023/03/09 01:07:35;;;;;;;20.35;14.85;;;;;;;-0.15;100.00;99141.22;4967381;28;20072;-73
2023/03/09 01:10:01;;;;;;;20.08;14.98;;;;;;;-0.14;100.00;99161.19;4964665;28;20078;-73
2023/03/09 01:12:26;;;;;;;21.25;14.73;;;;;;;-0.15;100.00;99151.63;4979419;28;20155;-72
2023/03/09 01:14:56;;;;;;;21.48;15.50;;;;;;;-0.17;100.00;99159.47;4976970;28;20100;-73
2023/03/09 01:17:22;;;;;;;20.67;14.80;;;;;;;-0.16;100.00;99162.94;4977587;28;20552;-73
2023/03/09 01:19:48;;;;;;;22.02;14.95;;;;;;;-0.16;100.00;99165.53;4980929;28;20125;-73
2023/03/09 01:22:13;;;;;;;21.73;15.10;;;;;;;-0.14;100.00;99167.25;4977127;28;20109;-73
2023/03/09 01:24:41;;;;;;;21.27;14.98;;;;;;;-0.13;100.00;99165.50;4966585;28;20050;-73
2023/03/09 01:27:09;;;;;;;21.83;15.25;;;;;;;-0.09;100.00;99165.47;4978843;28;20027;-73
2023/03/09 01:29:37;;;;;;;23.33;15.88;;;;;;;-0.09;100.00;99170.69;4979786;28;20097;-73
2023/03/09 01:32:03;;;;;;;22.52;15.15;;;;;;;-0.07;100.00;99175.91;4981089;28;20031;-73
2023/03/09 01:34:29;;;;;;;24.38;16.23;;;;;;;-0.06;100.00;99185.41;4980305;28;20513;-73
2023/03/09 01:36:54;;;;;;;21.90;14.60;;;;;;;-0.06;100.00;99199.28;4976911;28;20026;-72
2023/03/09 01:39:20;;;;;;;22.50;16.38;;;;;;;-0.06;100.00;99201.88;4977235;28;20339;-72
2023/03/09 01:41:45;;;;;;;21.30;15.80;;;;;;;-0.05;100.00;99197.53;4978156;28;20386;-72
2023/03/09 01:44:13;;;;;;;21.23;15.18;;;;;;;-0.03;100.00;99203.59;4978431;28;20042;-72
2023/03/09 01:46:47;;;;;;;22.33;16.00;;;;;;;-0.02;100.00;99207.97;4986045;28;20030;-72
2023/03/09 01:49:28;;;;;;;20.95;14.63;;;;;;;-0.01;100.00;99202.72;5027611;28;20038;-72
2023/03/09 01:52:00;;;;;;;23.52;17.02;;;;;;;-0.02;100.00;99195.81;5019515;28;20386;-72
2023/03/09 01:54:40;;;;;;;21.88;15.30;;;;;;;-0.04;100.00;99196.69;5029476;28;20506;-73
2023/03/09 01:57:44;;;;;;;21.80;15.93;;;;;;;0.00;100.00;99206.22;5021402;28;20489;-73
2023/03/09 02:00:18;;;;;;;23.95;16.20;;;;;;;0.03;100.00;99228.75;5027004;28;20093;-73
2023/03/09 02:03:08;;;;;;;23.00;16.08;;;;;;;0.04;100.00;99223.53;4994020;28;20104;-72
2023/03/09 02:05:38;;;;;;;;;;;;;;;0.08;100.00;99227.84;4993829;28;20453;-72
2023/03/09 02:08:05;;;;;;;21.30;14.57;;;;;;;0.06;100.00;99220.94;4993423;28;19937;-72
2023/03/09 02:10:35;;;;;;;23.27;14.95;;;;;;;0.08;100.00;99224.38;4961744;28;20045;-72
2023/03/09 02:13:08;;;;;;;22.45;15.40;;;;;;;0.09;100.00;99229.56;4984635;28;20031;-72
2023/03/09 02:15:34;;;;;;;24.13;16.85;;;;;;;0.10;100.00;99228.72;5004790;28;20038;-72
2023/03/09 02:18:02;;;;;;;23.33;15.98;;;;;;;0.12;100.00;99231.28;4994920;28;20328;-70
2023/03/09 02:20:37;;;;;;;25.50;17.73;;;;;;;0.12;100.00;99226.09;4979030;28;20042;-72
2023/03/09 02:23:11;;;;;;;25.65;16.88;;;;;;;0.10;100.00;99228.72;5004994;28;20172;-72
2023/03/09 02:25:48;;;;;;;24.30;17.10;;;;;;;0.11;100.00;99242.59;5015663;28;20039;-72
2023/03/09 02:28:14;;;;;;;24.85;17.20;;;;;;;0.09;100.00;99262.53;4986521;28;20053;-72
2023/03/09 02:30:43;;;;;;;26.10;17.90;;;;;;;0.11;100.00;99269.47;4987035;28;20393;-72
2023/03/09 02:33:20;;;;;;;24.98;16.92;;;;;;;0.13;100.00;99267.72;5005859;28;20035;-72
2023/03/09 02:35:46;;;;;;;26.88;17.33;;;;;;;0.15;100.00;99262.53;5005726;28;20552;-72
2023/03/09 02:38:13;;;;;;;23.02;15.95;;;;;;;0.14;100.00;99242.56;4993594;28;20034;-72
2023/03/09 02:40:39;;;;;;;25.13;16.45;;;;;;;0.11;100.00;99243.44;5005841;28;20031;-72
2023/03/09 02:43:09;;;;;;;26.42;17.20;;;;;;;0.09;100.00;99250.38;5025171;28;20026;-72
2023/03/09 02:45:35;;;;;;;26.65;17.30;;;;;;;0.09;100.00;99258.19;4992548;28;20031;-72
2023/03/09 02:48:02;;;;;;;27.05;19.25;;;;;;;0.08;100.00;99263.44;5008479;28;20041;-72
2023/03/09 02:50:28;;;;;;;29.50;18.35;;;;;;;0.07;100.00;99265.16;4992433;28;20142;-72
2023/03/09 02:52:54;;;;;;;28.65;19.13;;;;;;;0.11;100.00;99276.44;4992327;28;20096;-73
2023/03/09 02:55:20;;;;;;;27.13;18.70;;;;;;;0.09;100.00;99260.81;4985859;28;20038;-72
2023/03/09 02:57:46;;;;;;;27.58;18.55;;;;;;;0.11;100.00;99268.63;4985412;28;20461;-72
2023/03/09 03:00:16;;;;;;;28.08;19.48;;;;;;;0.11;100.00;99266.88;4993647;28;20034;-72
2023/03/09 03:02:42;;;;;;;25.10;17.02;;;;;;;0.13;100.00;99272.94;4972912;28;20047;-72
2023/03/09 03:05:08;;;;;;;25.45;17.67;;;;;;;0.14;100.00;99279.00;4988652;28;20485;-73
2023/03/09 03:07:37;;;;;;;29.20;18.88;;;;;;;0.14;100.00;99276.41;4992107;28;20046;-73
2023/03/09 03:10:03;;;;;;;25.55;18.63;;;;;;;0.13;100.00;99261.66;4978418;28;20089;-72
2023/03/09 03:12:30;;;;;;;27.60;19.48;;;;;;;0.13;100.00;99269.47;4993920;28;20521;-72
2023/03/09 03:14:58;;;;;;;28.10;19.05;;;;;;;0.10;100.00;99261.66;4991175;28;20053;-72
2023/03/09 03:17:24;;;;;;;29.92;19.98;;;;;;;0.11;100.00;99279.88;4991742;28;20486;-72
2023/03/09 03:19:50;;;;;;;32.33;20.20;;;;;;;0.10;100.00;99285.97;4980597;28;20023;-72
2023/03/09 03:22:15;;;;;;;30.27;20.60;;;;;;;0.11;100.00;99284.22;4985849;28;20313;-73
2023/03/09 03:24:43;;;;;;;27.90;17.85;;;;;;;0.11;100.00;99290.31;4985174;28;20031;-73
2023/03/09 03:27:09;;;;;;;31.65;20.70;;;;;;;0.10;100.00;99285.97;4985778;28;20068;-73
2023/03/09 03:29:35;;;;;;;34.03;20.27;;;;;;;0.10;100.00;99292.91;4980222;28;20509;-73
2023/03/09 03:32:01;;;;;;;30.92;19.55;;;;;;;0.10;100.00;99293.78;5024209;28;20041;-72
2023/03/09 03:34:27;;;;;;;30.85;20.45;;;;;;;0.10;100.00;99308.50;4975481;28;20018;-73
2023/03/09 03:36:53;;;;;;;29.42;20.25;;;;;;;0.09;100.00;99318.06;4959563;28;20068;-73
2023/03/09 03:39:19;;;;;;;30.63;20.13;;;;;;;0.13;100.00;99318.94;4975401;28;20088;-73
2023/03/09 03:41:46;;;;;;;28.60;20.83;;;;;;;0.12;100.00;99309.38;4991301;28;20038;-73
2023/03/09 03:44:15;;;;;;;35.72;21.20;;;;;;;0.11;100.00;99308.53;4988300;28;20035;-73
2023/03/09 03:46:42;;;;;;;28.88;20.10;;;;;;;0.07;100.00;99325.00;4971916;28;20031;-73
2023/03/09 03:49:07;;;;;;;33.90;20.80;;;;;;;0.10;100.00;99329.34;4985774;28;20683;-73
2023/03/09 03:51:36;;;;;;;30.60;21.17;;;;;;;0.12;100.00;99332.81;4978936;28;20144;-72
2023/03/09 03:54:04;;;;;;;34.10;21.05;;;;;;;0.11;100.00;99344.97;4975124;28;20517;-73
2023/03/09 03:56:30;;;;;;;33.72;21.90;;;;;;;0.11;100.00;99344.97;4991287;28;20049;-72
2023/03/09 03:58:58;;;;;;;32.47;21.00;;;;;;;0.14;100.00;99354.50;4993014;28;20061;-72
2023/03/09 04:01:23;;;;;;;35.33;23.50;;;;;;;0.15;100.00;99351.03;4977648;28;20079;-72
2023/03/09 04:03:57;;;;;;;34.72;21.92;;;;;;;0.13;100.00;99345.81;4975585;28;20113;-73
2023/03/09 04:06:23;;;;;;;33.10;21.73;;;;;;;0.13;100.00;99351.03;4991296;28;20432;-72
2023/03/09 04:08:48;;;;;;;34.63;22.42;;;;;;;0.14;100.00;99362.31;4974718;28;20515;-70
2023/03/09 04:11:14;;;;;;;35.47;23.33;;;;;;;0.15;100.00;99369.25;4990723;28;20042;-71
2023/03/09 04:13:48;;;;;;;33.85;22.65;;;;;;;0.16;100.00;99371.84;4971960;28;20066;-71
2023/03/09 04:16:14;;;;;;;35.55;21.33;;;;;;;0.14;100.00;99384.00;4982136;28;20493;-71
2023/03/09 04:18:39;;;;;;;41.95;23.63;;;;;;;0.18;100.00;99390.06;4974632;28;20062;-71
2023/03/09 04:21:05;;;;;;;33.17;22.95;;;;;;;0.19;100.00;99392.66;5023466;28;20049;-71
2023/03/09 04:23:31;;;;;;;38.47;23.90;;;;;;;0.19;100.00;99386.59;4986527;28;20062;-71
2023/03/09 04:26:02;;;;;;;37.05;23.15;;;;;;;0.16;100.00;99377.03;4979204;28;20046;-71
2023/03/09 04:28:51;;;;;;;35.25;22.80;;;;;;;0.15;100.00;99390.94;4986365;28;20489;-71
2023/03/09 04:31:18;;;;;;;41.15;24.23;;;;;;;0.13;100.00;99389.22;4975807;28;20470;-71
2023/03/09 04:33:44;;;;;;;39.55;24.05;;;;;;;0.16;100.00;99392.66;4968718;28;20132;-71
2023/03/09 04:36:13;;;;;;;39.58;23.98;;;;;;;0.16;100.00;99382.25;4990407;28;20125;-71
2023/03/09 04:38:40;;;;;;;42.28;26.75;;;;;;;0.13;100.00;99384.00;4990475;28;20125;-71
2023/03/09 04:41:06;;;;;;;41.33;24.70;;;;;;;0.12;100.00;99382.25;4950241;29;20058;-79
2023/03/09 04:43:33;;;;;;;40.50;25.30;;;;;;;0.13;100.00;99394.44;4934727;29;20055;-79
2023/03/09 04:45:59;;;;;;;42.35;25.85;;;;;;;0.12;100.00;99400.47;4937199;29;20062;-79
2023/03/09 04:48:26;;;;;;;45.58;27.95;;;;;;;0.10;100.00;99413.53;4937607;28;20031;-79
2023/03/09 04:50:52;;;;;;;43.95;25.90;;;;;;;0.12;100.00;99416.09;4966814;28;20203;-79
2023/03/09 04:53:17;;;;;;;44.75;26.95;;;;;;;0.11;100.00;99422.19;4946568;28;20066;-79
2023/03/09 04:55:45;;;;;;;41.20;25.55;;;;;;;0.12;100.00;99431.72;4938340;28;20480;-80
2023/03/09 04:58:13;;;;;;;43.15;26.30;;;;;;;0.15;100.00;99436.94;4966167;28;20027;-79
2023/03/09 05:00:39;;;;;;;47.83;28.77;;;;;;;0.14;100.00;99433.44;4973047;28;20630;-80
2023/03/09 05:03:06;;;;;;;47.63;26.75;;;;;;;0.14;100.00;99437.78;4966477;28;20027;-79
2023/03/09 05:05:33;;;;;;;47.03;26.77;;;;;;;0.12;100.00;99427.38;4902431;29;20139;-79
2023/03/09 05:08:00;;;;;;;47.70;29.05;;;;;;;0.13;100.00;99442.13;4943052;29;20043;-79
2023/03/09 05:10:26;;;;;;;46.75;27.92;;;;;;;0.12;100.00;99449.94;4950771;29;20202;-79
2023/03/09 05:12:55;;;;;;;43.38;25.15;;;;;;;0.15;100.00;99450.81;4973618;28;20208;-78
2023/03/09 05:15:25;;;;;;;48.10;28.23;;;;;;;0.14;100.00;99456.88;5009951;28;20041;-79
2023/03/09 05:17:51;;;;;;;45.65;27.17;;;;;;;0.13;100.00;99447.34;4990065;28;20350;-79
2023/03/09 05:20:17;;;;;;;42.80;26.05;;;;;;;0.15;100.00;99453.44;4971957;28;20027;-80
2023/03/09 05:22:49;;;;;;;43.22;25.98;;;;;;;0.14;100.00;99453.41;4987712;28;20058;-80
2023/03/09 05:25:15;;;;;;;45.28;27.15;;;;;;;0.11;100.00;99451.69;5003571;28;20042;-79
2023/03/09 05:27:41;;;;;;;47.90;27.67;;;;;;;0.09;100.00;99458.63;4973919;28;20031;-80
2023/03/09 05:30:07;;;;;;;47.90;27.33;;;;;;;0.13;100.00;99455.16;4974182;28;20117;-80
2023/03/09 05:32:37;;;;;;;42.08;26.60;;;;;;;0.13;100.00;99462.09;4990252;28;20120;-80
2023/03/09 05:35:03;;;;;;;47.35;28.35;;;;;;;0.14;100.00;99469.03;4981160;28;20066;-80
2023/03/09 05:37:28;;;;;;;45.80;25.83;;;;;;;0.15;100.00;99461.22;4985944;28;20046;-71
2023/03/09 05:39:57;;;;;;;47.05;27.20;;;;;;;0.16;100.00;99455.16;4984857;28;20066;-71
2023/03/09 05:42:22;;;;;;;45.20;26.05;;;;;;;0.17;100.00;99448.19;4993285;28;20057;-71
2023/03/09 05:44:48;;;;;;;41.25;25.45;;;;;;;0.17;100.00;99449.09;4985651;28;20494;-71
2023/03/09 05:47:13;;;;;;;40.55;25.70;;;;;;;0.16;100.00;99443.88;4988243;28;20027;-71
2023/03/09 05:49:39;;;;;;;43.47;25.92;;;;;;;0.18;100.00;99452.56;4986630;28;20096;-71
2023/03/09 05:52:05;;;;;;;43.40;24.63;;;;;;;0.19;100.00;99451.66;4983336;28;20031;-71
2023/03/09 05:54:33;;;;;;;43.03;24.77;;;;;;;0.16;100.00;99454.28;4974164;28;20427;-71
2023/03/09 05:57:05;;;;;;;42.72;25.88;;;;;;;0.15;100.00;99461.22;4993232;28;20176;-71
2023/03/09 05:59:31;;;;;;;43.05;24.27;;;;;;;0.16;100.00;99475.09;4977428;28;20113;-71
2023/03/09 06:01:56;;;;;;;42.40;24.65;;;;;;;0.18;100.00;99494.19;4976852;28;20433;-72
2023/03/09 06:04:25;;;;;;;40.95;24.27;;;;;;;0.20;100.00;99488.13;4993372;28;20113;-71
2023/03/09 06:06:56;;;;;;;45.00;25.13;;;;;;;0.22;100.00;99488.09;4993128;28;20046;-71
2023/03/09 06:09:27;;;;;;;42.53;24.00;;;;;;;0.23;100.00;99489.00;4992836;28;20054;-71
2023/03/09 06:11:53;;;;;;;39.53;25.08;;;;;;;0.20;100.00;99484.66;5006956;28;20133;-72
2023/03/09 06:14:20;;;;;;;47.50;26.50;;;;;;;0.21;100.00;99476.81;4966043;28;20062;-71
2023/03/09 06:16:47;;;;;;;40.00;23.58;;;;;;;0.24;100.00;99488.97;4976310;28;20108;-71
2023/03/09 06:19:13;;;;;;;42.70;24.35;;;;;;;0.23;100.00;99495.06;4992955;28;20121;-71
2023/03/09 06:21:40;;;;;;;42.85;25.27;;;;;;;0.25;100.00;99503.75;4977525;28;20156;-80
2023/03/09 06:24:06;;;;;;;37.90;23.00;;;;;;;0.27;100.00;99499.38;4983197;28;20030;-79
2023/03/09 06:26:32;;;;;;;39.85;23.15;;;;;;;0.28;100.00;99506.34;5022100;28;20061;-79
2023/03/09 06:29:04;;;;;;;35.80;22.48;;;;;;;0.29;100.00;99521.06;5004077;28;20042;-79
2023/03/09 06:31:32;;;;;;;39.63;23.60;;;;;;;0.29;100.00;99535.84;4991849;28;20042;-80
2023/03/09 06:33:58;;;;;;;39.58;23.98;;;;;;;0.28;100.00;99528.91;4986887;28;20086;-79
2023/03/09 06:36:25;;;;;;;39.08;22.00;;;;;;;0.27;100.00;99534.97;5005745;28;20035;-79
2023/03/09 06:38:51;;;;;;;43.17;24.35;;;;;;;0.31;100.00;99545.38;4975341;28;20085;-80
2023/03/09 06:41:31;;;;;;;40.15;25.00;;;;;;;0.32;100.00;99543.63;4981038;28;20038;-79
2023/03/09 06:44:04;;;;;;;41.60;23.27;;;;;;;0.28;100.00;99548.00;5007197;28;20035;-79
2023/03/09 06:46:31;;;;;;;40.47;22.55;;;;;;;0.34;100.00;99547.09;4988466;28;20042;-79
2023/03/09 06:48:57;;;;;;;38.95;22.52;;;;;;;0.37;100.00;99541.88;4974638;28;20030;-80
2023/03/09 06:51:22;;;;;;;39.00;23.92;;;;;;;0.39;100.00;99547.97;5015018;28;20042;-80
2023/03/09 06:53:48;;;;;;;37.38;22.92;;;;;;;0.39;100.00;99547.97;4975103;28;20033;-79
2023/03/09 06:56:17;;;;;;;36.03;22.63;;;;;;;0.39;100.00;99561.84;4976273;28;20399;-80
2023/03/09 06:58:43;;;;;;;37.17;22.27;;;;;;;0.41;100.00;99585.31;4978458;28;20113;-79
2023/03/09 07:01:11;;;;;;;35.20;20.00;;;;;;;0.41;100.00;99582.69;4986622;28;20038;-79
2023/03/09 07:03:39;;;;;;;43.53;23.17;;;;;;;0.43;100.00;99596.59;5017242;28;20497;-80
2023/03/09 07:06:05;;;;;;;39.50;22.88;;;;;;;0.41;100.00;99596.59;4979356;28;20117;-80
2023/03/09 07:08:30;;;;;;;34.63;21.15;;;;;;;0.43;100.00;99596.59;4993943;28;20125;-80
2023/03/09 07:10:56;;;;;;;38.85;22.70;;;;;;;0.45;100.00;99602.66;5005508;28;20038;-79
2023/03/09 07:13:21;;;;;;;38.30;21.90;;;;;;;0.46;100.00;99613.94;4987456;28;20023;-79
2023/03/09 07:15:47;;;;;;;40.80;23.25;;;;;;;0.45;100.00;99625.25;4975835;28;20041;-78
2023/03/09 07:18:13;;;;;;;41.50;25.83;;;;;;;0.46;100.00;99638.25;4977073;28;20113;-79
2023/03/09 07:20:40;;;;;;;41.03;23.45;;;;;;;0.46;100.00;99643.47;4971897;28;20459;-79
2023/03/09 07:23:06;;;;;;;43.28;24.83;;;;;;;0.45;100.00;99652.16;4976668;28;20057;-81
2023/03/09 07:25:35;;;;;;;41.70;21.95;;;;;;;0.46;100.00;99653.88;5013317;28;20038;-79
2023/03/09 07:28:03;;;;;;;37.70;22.42;;;;;;;0.53;100.00;99654.75;4974714;28;20121;-80
2023/03/09 07:30:30;;;;;;;37.75;21.90;;;;;;;0.52;100.00;99633.06;4983828;28;20039;-81
2023/03/09 07:32:57;;;;;;;41.53;22.15;;;;;;;0.55;100.00;99640.88;4978828;28;20045;-81
2023/03/09 07:35:23;;;;;;;41.75;23.58;;;;;;;0.53;100.00;99653.03;4981802;28;20040;-78
2023/03/09 07:37:48;;;;;;;40.13;23.27;;;;;;;0.58;100.00;99666.91;4987170;28;20094;-78
2023/03/09 07:40:14;;;;;;;40.05;24.25;;;;;;;0.60;100.00;99667.78;4984456;28;20038;-78
2023/03/09 07:42:39;;;;;;;39.47;22.23;;;;;;;0.62;100.00;99679.06;4988179;28;20034;-77
2023/03/09 07:45:21;;;;;;;38.25;22.45;;;;;;;0.61;100.00;99671.25;4973522;28;20089;-78
2023/03/09 07:47:47;;;;;;;38.97;22.42;;;;;;;0.63;100.00;99672.13;4973134;28;20041;-75
2023/03/09 07:50:13;;;;;;;37.20;22.00;;;;;;;0.63;100.00;99664.31;4988413;28;20022;-78
2023/03/09 07:52:39;;;;;;;38.33;22.88;;;;;;;0.63;100.00;99651.28;4992438;28;20228;-78
2023/03/09 07:55:07;;;;;;;46.47;26.50;;;;;;;0.67;100.00;99645.22;4991277;28;20030;-78
2023/03/09 07:57:33;;;;;;;43.35;24.30;;;;;;;0.74;100.00;99675.59;4990539;28;20042;-78
2023/03/09 07:59:59;;;;;;;42.65;24.10;;;;;;;0.76;100.00;99681.66;4984528;28;20042;-78
2023/03/09 08:02:25;;;;;;;38.15;22.10;;;;;;;0.78;100.00;99684.28;5016490;28;20030;-77
2023/03/09 08:04:51;;;;;;;42.67;24.27;;;;;;;0.81;100.00;99681.66;4974545;28;20409;-78
2023/03/09 08:07:17;;;;;;;42.80;23.92;;;;;;;0.83;100.00;99677.31;4992160;28;20030;-79
2023/03/09 08:09:43;;;;;;;44.13;23.17;;;;;;;0.85;100.00;99686.00;4989858;28;20053;-78
2023/03/09 08:12:10;;;;;;;42.22;24.63;;;;;;;0.88;100.00;99691.22;4987653;28;20130;-78
2023/03/09 08:14:36;;;;;;;46.88;26.02;;;;;;;0.89;100.00;99698.19;4989534;28;20469;-78
2023/03/09 08:17:03;;;;;;;44.13;24.85;;;;;;;0.94;100.00;99711.19;4982655;28;20138;-78
2023/03/09 08:19:29;;;;;;;46.58;24.67;;;;;;;1.00;100.00;99734.66;4986041;28;20167;-78
2023/03/09 08:21:56;;;;;;;44.65;22.25;;;;;;;1.04;100.00;99726.84;4990945;28;20041;-79
2023/03/09 08:24:21;;;;;;;47.03;26.33;;;;;;;1.05;100.00;99715.53;4981445;28;20026;-79
2023/03/09 08:26:47;;;;;;;49.67;26.45;;;;;;;1.05;100.00;99705.09;4974178;28;20123;-79
2023/03/09 08:29:12;;;;;;;48.78;28.90;;;;;;;1.15;100.00;99713.75;5000880;28;20035;-79
2023/03/09 08:31:38;;;;;;;51.90;27.73;;;;;;;1.20;100.00;99722.44;4989749;28;20046;-78
2023/03/09 08:34:04;;;;;;;50.92;26.52;;;;;;;1.25;100.00;99723.31;5021943;28;20038;-78
2023/03/09 08:36:30;;;;;;;43.53;26.25;;;;;;;1.28;100.00;99720.69;5005867;28;20054;-78
2023/03/09 08:38:56;;;;;;;46.10;26.73;;;;;;;1.34;100.00;99729.41;4991828;28;20025;-78
2023/03/09 08:41:22;;;;;;;43.90;25.25;;;;;;;1.38;100.00;99736.31;4984501;28;20093;-78
2023/03/09 08:43:47;;;;;;;47.47;24.88;;;;;;;1.44;100.00;99739.78;4984915;28;20038;-77
2023/03/09 08:46:14;;;;;;;43.05;25.33;;;;;;;1.45;100.00;99738.06;4978553;28;20048;-78
2023/03/09 08:48:39;;;;;;;41.33;23.45;;;;;;;1.48;100.00;99744.16;4989521;28;20038;-76
2023/03/09 08:51:07;;;;;;;46.28;26.38;;;;;;;1.54;100.00;99743.25;4985915;28;20042;-78
2023/03/09 08:53:33;;;;;;;53.05;25.65;;;;;;;1.55;100.00;99733.69;4986424;28;20482;-77
2023/03/09 08:56:02;;;;;;;42.45;23.17;;;;;;;1.61;100.00;99731.94;4980133;28;20046;-78
2023/03/09 08:58:28;;;;;;;43.60;24.23;;;;;;;1.62;100.00;99733.66;4985865;28;20034;-78
2023/03/09 09:00:53;;;;;;;48.20;26.70;;;;;;;1.67;100.00;99738.84;4990048;28;20116;-70
2023/03/09 09:03:19;;;;;;;45.20;25.88;;;;;;;1.74;100.00;99755.38;4990335;28;20113;-70
2023/03/09 09:05:44;;;;;;;45.60;25.38;;;;;;;1.75;100.00;99767.53;4988910;28;20085;-70
2023/03/09 09:08:10;;;;;;;43.50;23.15;;;;;;;1.73;100.00;99770.13;4995835;28;20076;-69
2023/03/09 09:10:42;;;;;;;46.05;23.98;;;;;;;1.72;100.00;99763.19;4979013;28;20133;-69
2023/03/09 09:13:08;;;;;;;39.40;21.98;;;;;;;1.74;100.00;99771.91;4976012;28;20030;-69
2023/03/09 09:15:34;;;;;;;48.20;25.17;;;;;;;1.76;100.00;99783.19;4973965;28;20042;-69
2023/03/09 09:18:00;;;;;;;42.05;22.77;;;;;;;1.77;100.00;99792.75;4975669;28;20027;-69
2023/03/09 09:20:25;;;;;;;45.83;24.90;;;;;;;1.84;100.00;99793.63;4975692;28;20108;-69
2023/03/09 09:22:51;;;;;;;46.67;24.10;;;;;;;1.87;100.00;99796.22;4975224;28;20150;-69
2023/03/09 09:25:16;;;;;;;50.53;27.05;;;;;;;1.91;100.00;99803.16;4988713;28;20050;-69
2023/03/09 09:27:42;;;;;;;46.20;24.17;;;;;;;1.93;100.00;99798.81;4979341;28;20470;-69
2023/03/09 09:30:09;;;;;;;43.50;24.58;;;;;;;1.93;100.00;99789.25;4990593;28;20045;-69
2023/03/09 09:32:35;;;;;;;47.22;25.02;;;;;;;1.94;100.00;99777.91;4976437;28;20047;-69
2023/03/09 09:35:00;;;;;;;47.58;25.52;;;;;;;2.02;100.00;99774.41;4966075;28;20278;-69
2023/03/09 09:37:28;;;;;;;50.90;27.33;;;;;;;2.09;100.00;99770.88;4974167;28;20213;-69
2023/03/09 09:39:54;;;;;;;51.70;26.73;;;;;;;2.19;100.00;99769.97;4979835;28;20027;-69
2023/03/09 09:42:23;;;;;;;44.05;27.20;;;;;;;2.26;100.00;99773.41;4982344;28;20506;-69
2023/03/09 09:44:51;;;;;;;48.42;26.35;;;;;;;2.32;100.00;99773.38;4987623;28;20058;-69
2023/03/09 09:47:23;;;;;;;44.72;24.45;;;;;;;2.34;100.00;99784.69;4984346;28;20038;-69
2023/03/09 09:49:49;;;;;;;;;;;;;;;2.41;100.00;99791.63;4979755;28;20062;-69
2023/03/09 09:52:22;;;;;;;48.35;24.58;;;;;;;2.39;100.00;99800.34;4988874;28;19913;-68
2023/03/09 09:54:58;;;;;;;48.05;25.80;;;;;;;2.36;100.00;99804.72;4989825;28;20381;-69
2023/03/09 09:57:52;;;;;;;45.58;24.50;;;;;;;2.32;100.00;99812.56;4977213;28;20030;-69
2023/03/09 10:00:28;;;;;;;49.25;26.48;;;;;;;2.30;100.00;99815.19;4988848;28;20383;-69
2023/03/09 10:03:10;;;;;;;42.78;24.38;;;;;;;2.25;100.00;99813.47;4989894;28;20505;-69
2023/03/09 10:05:50;;;;;;;44.40;23.48;;;;;;;2.23;100.00;99826.56;4981119;28;20050;-69
2023/03/09 10:08:29;;;;;;;43.70;23.75;;;;;;;2.21;100.00;99812.63;4994306;28;20030;-69
2023/03/09 10:11:06;;;;;;;48.33;26.05;;;;;;;2.25;100.00;99809.13;4986286;28;20039;-69
2023/03/09 10:13:39;;;;;;;46.20;26.02;;;;;;;2.26;100.00;99810.00;4984012;28;20102;-69
2023/03/09 10:16:10;;;;;;;43.67;24.25;;;;;;;2.27;100.00;99820.41;4984431;28;20285;-69
2023/03/09 10:18:48;;;;;;;47.08;26.52;;;;;;;2.29;100.00;99812.59;4974906;28;20042;-69
2023/03/09 10:21:50;;;;;;;49.20;25.75;;;;;;;2.34;100.00;99816.91;4994031;28;20367;-69
2023/03/09 10:24:21;;;;;;;47.15;27.33;;;;;;;2.36;100.00;99811.69;4977112;28;20042;-69
2023/03/09 10:26:55;;;;;;;47.53;25.75;;;;;;;2.38;100.00;99822.13;5001800;28;20049;-69
2023/03/09 10:29:33;;;;;;;47.63;25.55;;;;;;;2.38;100.00;99811.69;4992936;28;20069;-69
2023/03/09 10:32:05;;;;;;;45.88;25.98;;;;;;;2.39;100.00;99811.66;4980775;28;20462;-69
2023/03/09 10:34:42;;;;;;;46.78;25.27;;;;;;;2.35;100.00;99795.16;5011866;28;20038;-69
2023/03/09 10:37:20;;;;;;;46.58;25.80;;;;;;;2.36;100.00;99791.66;4979012;28;20150;-69
2023/03/09 10:39:46;;;;;;;50.28;26.17;;;;;;;2.40;100.00;99792.50;4981941;28;20049;-69
2023/03/09 10:42:21;;;;;;;51.60;25.60;;;;;;;2.44;100.00;99807.28;4982639;28;20101;-69
2023/03/09 10:45:01;;;;;;;48.97;27.13;;;;;;;2.54;100.00;99815.94;4993812;28;20034;-69
2023/03/09 10:47:47;;;;;;;48.35;26.70;;;;;;;2.61;100.00;99816.78;5025014;28;20057;-69
2023/03/09 10:50:14;;;;;;;50.03;27.08;;;;;;;2.63;100.00;99813.28;4993566;28;20394;-69
2023/03/09 10:52:40;;;;;;;49.25;26.20;;;;;;;2.69;100.00;99815.84;5008270;28;20026;-69
2023/03/09 10:55:35;;;;;;;47.85;27.10;;;;;;;2.76;100.00;99811.44;5025303;28;20129;-69
2023/03/09 10:58:12;;;;;;;42.88;24.88;;;;;;;2.73;100.00;99801.88;4978327;28;20134;-69
2023/03/09 11:00:50;;;;;;;42.88;23.67;;;;;;;2.84;100.00;99821.84;4961319;28;20391;-69
2023/03/09 11:03:30;;;;;;;45.60;25.05;;;;;;;2.91;100.00;99818.31;4973737;28;20134;-69
2023/03/09 11:06:16;;;;;;;47.63;26.40;;;;;;;2.94;100.00;99819.19;4983142;28;20043;-69
2023/03/09 11:08:57;;;;;;;41.75;24.10;;;;;;;2.94;100.00;99799.97;5012828;28;20042;-69
2023/03/09 11:11:24;;;;;;;;;;;;;;;3.06;100.00;99799.88;4993565;28;20050;-69
2023/03/09 11:13:51;;;;;;;47.65;25.23;;;;;;;3.10;100.00;99792.91;5018374;28;19910;-69
2023/03/09 11:16:19;;;;;;;51.97;28.90;;;;;;;3.13;100.00;99798.97;4974777;28;20402;-69
2023/03/09 11:18:51;;;;;;;50.80;26.65;;;;;;;3.16;100.00;99798.94;4972115;28;20113;-69
2023/03/09 11:21:23;;;;;;;52.00;27.63;;;;;;;3.19;100.00;99801.53;4971802;28;20134;-69
2023/03/09 11:23:52;;;;;;;49.90;27.50;;;;;;;3.24;100.00;99798.91;4973934;28;20101;-69